sensor_id;sensor_type;location;lat;lon;timestamp;temperature;humidity
28863;DHT22;15994;51.796;13.006;2023-03-16T00:02:15;0.30;99.90
28863;DHT22;15994;51.796;13.006;2023-03-16T00:04:41;0.20;99.90
28863;DHT22;15994;51.796;13.006;2023-03-16T00:07:12;0.20;99.90
28863;DHT22;15994;51.796;13.006;2023-03-16T00:09:39;0.20;99.90
28863;DHT22;15994;51.796;13.006;2023-03-16T00:12:13;0.20;99.90
28863;DHT22;15994;51.796;13.006;2023-03-16T00:14:42;0.20;99.90
28863;DHT22;15994;51.796;13.006;2023-03-16T00:17:11;0.20;99.90
28863;DHT22;15994;51.796;13.006;2023-03-16T00:20:16;0.20;99.90
28863;DHT22;15994;51.796;13.006;2023-03-16T00:22:36;0.10;99.90
28863;DHT22;15994;51.796;13.006;2023-03-16T00:25:02;0.10;99.90
28863;DHT22;15994;51.796;13.006;2023-03-16T00:27:29;0.00;99.90
28863;DHT22;15994;51.796;13.006;2023-03-16T00:29:56;0.00;99.90
28863;DHT22;15994;51.796;13.006;2023-03-16T00:32:28;0.00;99.90
28863;DHT22;15994;51.796;13.006;2023-03-16T00:34:56;0.00;99.90
28863;DHT22;15994;51.796;13.006;2023-03-16T00:37:25;-0.10;99.90
28863;DHT22;15994;51.796;13.006;2023-03-16T00:39:52;-0.10;99.90
28863;DHT22;15994;51.796;13.006;2023-03-16T00:42:21;-0.10;99.90
28863;DHT22;15994;51.796;13.006;2023-03-16T00:44:54;-0.10;99.90
28863;DHT22;15994;51.796;13.006;2023-03-16T00:47:26;-0.10;99.90
28863;DHT22;15994;51.796;13.006;2023-03-16T00:49:53;-0.20;99.90
28863;DHT22;15994;51.796;13.006;2023-03-16T00:52:20;-0.20;99.90
28863;DHT22;15994;51.796;13.006;2023-03-16T00:54:48;-0.20;99.90
28863;DHT22;15994;51.796;13.006;2023-03-16T00:57:17;-0.30;99.90
28863;DHT22;15994;51.796;13.006;2023-03-16T00:59:45;-0.30;99.90
28863;DHT22;15994;51.796;13.006;2023-03-16T01:02:13;-0.40;99.90
28863;DHT22;15994;51.796;13.006;2023-03-16T01:04:40;-0.40;99.90
28863;DHT22;15994;51.796;13.006;2023-03-16T01:07:08;-0.50;99.90
28863;DHT22;15994;51.796;13.006;2023-03-16T01:09:37;-0.60;99.90
28863;DHT22;15994;51.796;13.006;2023-03-16T01:12:05;-0.70;99.90
28863;DHT22;15994;51.796;13.006;2023-03-16T01:14:33;-0.70;99.90
28863;DHT22;15994;51.796;13.006;2023-03-16T01:17:01;-0.70;99.90
28863;DHT22;15994;51.796;13.006;2023-03-16T01:19:28;-0.80;99.90
28863;DHT22;15994;51.796;13.006;2023-03-16T01:21:58;-0.80;99.90
28863;DHT22;15994;51.796;13.006;2023-03-16T01:24:24;-0.90;99.90
28863;DHT22;15994;51.796;13.006;2023-03-16T01:26:51;-0.90;99.90
28863;DHT22;15994;51.796;13.006;2023-03-16T01:29:18;-0.90;99.90
28863;DHT22;15994;51.796;13.006;2023-03-16T01:31:45;-1.00;99.90
28863;DHT22;15994;51.796;13.006;2023-03-16T01:34:12;-1.00;99.90
28863;DHT22;15994;51.796;13.006;2023-03-16T01:36:42;-1.00;99.90
28863;DHT22;15994;51.796;13.006;2023-03-16T01:39:10;-1.00;99.90
28863;DHT22;15994;51.796;13.006;2023-03-16T01:41:37;-1.00;99.90
28863;DHT22;15994;51.796;13.006;2023-03-16T01:44:04;-1.00;99.90
28863;DHT22;15994;51.796;13.006;2023-03-16T01:46:31;-1.10;99.90
28863;DHT22;15994;51.796;13.006;2023-03-16T01:49:12;-1.10;99.90
28863;DHT22;15994;51.796;13.006;2023-03-16T01:51:51;-1.20;99.90
28863;DHT22;15994;51.796;13.006;2023-03-16T01:54:26;-1.20;99.90
28863;DHT22;15994;51.796;13.006;2023-03-16T01:57:04;-1.20;99.90
28863;DHT22;15994;51.796;13.006;2023-03-16T01:59:54;-1.30;99.90
28863;DHT22;15994;51.796;13.006;2023-03-16T02:02:25;-1.30;99.90
28863;DHT22;15994;51.796;13.006;2023-03-16T02:07:46;-1.30;99.90
28863;DHT22;15994;51.796;13.006;2023-03-16T02:10:15;-1.30;99.90
28863;DHT22;15994;51.796;13.006;2023-03-16T02:12:42;-1.30;99.90
28863;DHT22;15994;51.796;13.006;2023-03-16T02:15:10;-1.40;99.90
28863;DHT22;15994;51.796;13.006;2023-03-16T02:17:38;-1.40;99.90
28863;DHT22;15994;51.796;13.006;2023-03-16T02:22:49;-1.50;99.90
28863;DHT22;15994;51.796;13.006;2023-03-16T02:25:19;-1.50;99.90
28863;DHT22;15994;51.796;13.006;2023-03-16T02:28:09;-1.60;99.90
28863;DHT22;15994;51.796;13.006;2023-03-16T02:30:37;-1.50;99.90
28863;DHT22;15994;51.796;13.006;2023-03-16T02:33:04;-1.50;99.90
28863;DHT22;15994;51.796;13.006;2023-03-16T02:35:31;-1.60;99.90
28863;DHT22;15994;51.796;13.006;2023-03-16T02:37:58;-1.50;99.90
28863;DHT22;15994;51.796;13.006;2023-03-16T02:40:28;-1.60;99.90
28863;DHT22;15994;51.796;13.006;2023-03-16T02:43:17;-1.60;99.90
28863;DHT22;15994;51.796;13.006;2023-03-16T02:45:50;-1.60;99.90
28863;DHT22;15994;51.796;13.006;2023-03-16T02:49:18;-1.60;99.90
28863;DHT22;15994;51.796;13.006;2023-03-16T02:51:27;-1.60;99.90
28863;DHT22;15994;51.796;13.006;2023-03-16T02:53:54;-1.60;99.90
28863;DHT22;15994;51.796;13.006;2023-03-16T02:56:21;-1.60;99.90
28863;DHT22;15994;51.796;13.006;2023-03-16T02:58:48;-1.60;99.90
28863;DHT22;15994;51.796;13.006;2023-03-16T03:01:14;-1.60;99.90
28863;DHT22;15994;51.796;13.006;2023-03-16T03:03:41;-1.60;99.90
28863;DHT22;15994;51.796;13.006;2023-03-16T03:06:08;-1.70;99.90
28863;DHT22;15994;51.796;13.006;2023-03-16T03:08:35;-1.70;99.90
28863;DHT22;15994;51.796;13.006;2023-03-16T03:11:02;-1.70;99.90
28863;DHT22;15994;51.796;13.006;2023-03-16T03:13:28;-1.60;99.90
28863;DHT22;15994;51.796;13.006;2023-03-16T03:15:55;-1.70;99.90
28863;DHT22;15994;51.796;13.006;2023-03-16T03:18:22;-1.70;99.90
28863;DHT22;15994;51.796;13.006;2023-03-16T03:20:49;-1.70;99.90
28863;DHT22;15994;51.796;13.006;2023-03-16T03:23:16;-1.70;99.90
28863;DHT22;15994;51.796;13.006;2023-03-16T03:25:43;-1.60;99.90
28863;DHT22;15994;51.796;13.006;2023-03-16T03:28:10;-1.60;99.90
28863;DHT22;15994;51.796;13.006;2023-03-16T03:30:37;-1.70;99.90
28863;DHT22;15994;51.796;13.006;2023-03-16T03:33:03;-1.70;99.90
28863;DHT22;15994;51.796;13.006;2023-03-16T03:35:30;-1.70;99.90
28863;DHT22;15994;51.796;13.006;2023-03-16T03:37:57;-1.60;99.90
28863;DHT22;15994;51.796;13.006;2023-03-16T03:40:23;-1.60;99.90
28863;DHT22;15994;51.796;13.006;2023-03-16T03:42:50;-1.60;99.90
28863;DHT22;15994;51.796;13.006;2023-03-16T03:45:17;-1.70;99.90
28863;DHT22;15994;51.796;13.006;2023-03-16T03:47:43;-1.70;99.90
28863;DHT22;15994;51.796;13.006;2023-03-16T03:50:11;-1.60;99.90
28863;DHT22;15994;51.796;13.006;2023-03-16T03:52:38;-1.60;99.90
28863;DHT22;15994;51.796;13.006;2023-03-16T03:55:05;-1.60;99.90
28863;DHT22;15994;51.796;13.006;2023-03-16T03:57:31;-1.60;99.90
28863;DHT22;15994;51.796;13.006;2023-03-16T03:59:58;-1.70;99.90
28863;DHT22;15994;51.796;13.006;2023-03-16T04:02:24;-1.70;99.90
28863;DHT22;15994;51.796;13.006;2023-03-16T04:04:51;-1.70;99.90
28863;DHT22;15994;51.796;13.006;2023-03-16T04:07:17;-1.70;99.90
28863;DHT22;15994;51.796;13.006;2023-03-16T04:09:44;-1.70;99.90
28863;DHT22;15994;51.796;13.006;2023-03-16T04:12:11;-1.70;99.90
28863;DHT22;15994;51.796;13.006;2023-03-16T04:14:37;-1.70;99.90
28863;DHT22;15994;51.796;13.006;2023-03-16T04:17:04;-1.70;99.90
28863;DHT22;15994;51.796;13.006;2023-03-16T04:19:30;-1.70;99.90
28863;DHT22;15994;51.796;13.006;2023-03-16T04:21:57;-1.70;99.90
28863;DHT22;15994;51.796;13.006;2023-03-16T04:24:23;-1.70;99.90
28863;DHT22;15994;51.796;13.006;2023-03-16T04:26:50;-1.70;99.90
28863;DHT22;15994;51.796;13.006;2023-03-16T04:29:18;-1.70;99.90
28863;DHT22;15994;51.796;13.006;2023-03-16T04:31:45;-1.70;99.90
28863;DHT22;15994;51.796;13.006;2023-03-16T04:34:13;-1.70;99.90
28863;DHT22;15994;51.796;13.006;2023-03-16T04:36:40;-1.70;99.90
28863;DHT22;15994;51.796;13.006;2023-03-16T04:39:07;-1.70;99.90
28863;DHT22;15994;51.796;13.006;2023-03-16T04:41:34;-1.70;99.90
28863;DHT22;15994;51.796;13.006;2023-03-16T04:44:01;-1.70;99.90
28863;DHT22;15994;51.796;13.006;2023-03-16T04:46:30;-1.70;99.90
28863;DHT22;15994;51.796;13.006;2023-03-16T04:48:56;-1.70;99.90
28863;DHT22;15994;51.796;13.006;2023-03-16T04:51:23;-1.70;99.90
28863;DHT22;15994;51.796;13.006;2023-03-16T04:53:50;-1.70;99.90
28863;DHT22;15994;51.796;13.006;2023-03-16T04:56:17;-1.70;99.90
28863;DHT22;15994;51.796;13.006;2023-03-16T04:58:45;-1.70;99.90
28863;DHT22;15994;51.796;13.006;2023-03-16T05:01:12;-1.70;99.90
28863;DHT22;15994;51.796;13.006;2023-03-16T05:03:39;-1.70;99.90
28863;DHT22;15994;51.796;13.006;2023-03-16T05:06:08;-1.70;99.90
28863;DHT22;15994;51.796;13.006;2023-03-16T05:08:36;-1.80;99.90
28863;DHT22;15994;51.796;13.006;2023-03-16T05:11:02;-1.80;99.90
28863;DHT22;15994;51.796;13.006;2023-03-16T05:13:29;-1.80;99.90
28863;DHT22;15994;51.796;13.006;2023-03-16T05:15:55;-1.80;99.90
28863;DHT22;15994;51.796;13.006;2023-03-16T05:18:22;-1.80;99.90
28863;DHT22;15994;51.796;13.006;2023-03-16T05:20:51;-1.80;99.90
28863;DHT22;15994;51.796;13.006;2023-03-16T05:23:20;-1.80;99.90
28863;DHT22;15994;51.796;13.006;2023-03-16T05:25:47;-1.90;99.90
28863;DHT22;15994;51.796;13.006;2023-03-16T05:28:15;-1.90;99.90
28863;DHT22;15994;51.796;13.006;2023-03-16T05:30:42;-1.90;99.90
28863;DHT22;15994;51.796;13.006;2023-03-16T05:33:09;-1.90;99.90
28863;DHT22;15994;51.796;13.006;2023-03-16T05:35:36;-1.90;99.90
28863;DHT22;15994;51.796;13.006;2023-03-16T05:38:03;-1.90;99.90
28863;DHT22;15994;51.796;13.006;2023-03-16T05:40:30;-1.80;99.90
28863;DHT22;15994;51.796;13.006;2023-03-16T05:42:57;-1.80;99.90
28863;DHT22;15994;51.796;13.006;2023-03-16T05:45:24;-1.80;99.90
28863;DHT22;15994;51.796;13.006;2023-03-16T05:47:51;-1.70;99.90
28863;DHT22;15994;51.796;13.006;2023-03-16T05:50:18;-1.70;99.90
28863;DHT22;15994;51.796;13.006;2023-03-16T05:52:45;-1.60;99.90
28863;DHT22;15994;51.796;13.006;2023-03-16T05:55:13;-1.60;99.90
28863;DHT22;15994;51.796;13.006;2023-03-16T05:57:40;-1.60;99.90
28863;DHT22;15994;51.796;13.006;2023-03-16T06:00:11;-1.50;99.90
28863;DHT22;15994;51.796;13.006;2023-03-16T06:02:41;-1.50;99.90
28863;DHT22;15994;51.796;13.006;2023-03-16T06:05:08;-1.50;99.90
28863;DHT22;15994;51.796;13.006;2023-03-16T06:07:35;-1.40;99.90
28863;DHT22;15994;51.796;13.006;2023-03-16T06:10:02;-1.40;99.90
28863;DHT22;15994;51.796;13.006;2023-03-16T06:12:29;-1.40;99.90
28863;DHT22;15994;51.796;13.006;2023-03-16T06:14:56;-1.30;99.90
28863;DHT22;15994;51.796;13.006;2023-03-16T06:17:22;-1.30;99.90
28863;DHT22;15994;51.796;13.006;2023-03-16T06:19:49;-1.20;99.90
28863;DHT22;15994;51.796;13.006;2023-03-16T06:22:15;-1.20;99.90
28863;DHT22;15994;51.796;13.006;2023-03-16T06:24:42;-1.10;99.90
28863;DHT22;15994;51.796;13.006;2023-03-16T06:27:09;-1.10;99.90
28863;DHT22;15994;51.796;13.006;2023-03-16T06:29:35;-1.00;99.90
28863;DHT22;15994;51.796;13.006;2023-03-16T06:32:02;-0.90;99.90
28863;DHT22;15994;51.796;13.006;2023-03-16T06:34:29;-0.90;99.90
28863;DHT22;15994;51.796;13.006;2023-03-16T06:36:55;-0.80;99.90
28863;DHT22;15994;51.796;13.006;2023-03-16T06:39:22;-0.70;99.90
28863;DHT22;15994;51.796;13.006;2023-03-16T06:41:48;-0.70;99.90
28863;DHT22;15994;51.796;13.006;2023-03-16T06:44:15;-0.60;99.90
28863;DHT22;15994;51.796;13.006;2023-03-16T06:46:41;-0.50;99.90
28863;DHT22;15994;51.796;13.006;2023-03-16T06:49:09;-0.30;99.90
28863;DHT22;15994;51.796;13.006;2023-03-16T06:51:35;-0.20;99.90
28863;DHT22;15994;51.796;13.006;2023-03-16T06:54:02;-0.10;99.90
28863;DHT22;15994;51.796;13.006;2023-03-16T06:56:28;0.00;99.90
28863;DHT22;15994;51.796;13.006;2023-03-16T06:58:56;0.00;99.90
28863;DHT22;15994;51.796;13.006;2023-03-16T07:01:23;0.00;99.90
28863;DHT22;15994;51.796;13.006;2023-03-16T07:03:49;0.00;99.90
28863;DHT22;15994;51.796;13.006;2023-03-16T07:06:16;0.00;99.90
28863;DHT22;15994;51.796;13.006;2023-03-16T07:08:42;0.00;99.90
28863;DHT22;15994;51.796;13.006;2023-03-16T07:11:09;0.10;99.90
28863;DHT22;15994;51.796;13.006;2023-03-16T07:13:36;0.20;99.90
28863;DHT22;15994;51.796;13.006;2023-03-16T07:16:03;0.20;99.90
28863;DHT22;15994;51.796;13.006;2023-03-16T07:18:30;0.30;99.90
28863;DHT22;15994;51.796;13.006;2023-03-16T07:20:57;0.40;99.90
28863;DHT22;15994;51.796;13.006;2023-03-16T07:23:23;0.40;99.90
28863;DHT22;15994;51.796;13.006;2023-03-16T07:25:51;0.50;99.90
28863;DHT22;15994;51.796;13.006;2023-03-16T07:28:18;0.60;99.90
28863;DHT22;15994;51.796;13.006;2023-03-16T07:30:45;0.70;99.90
28863;DHT22;15994;51.796;13.006;2023-03-16T07:33:12;0.80;99.90
28863;DHT22;15994;51.796;13.006;2023-03-16T07:35:39;0.80;99.90
28863;DHT22;15994;51.796;13.006;2023-03-16T07:38:05;0.90;99.90
28863;DHT22;15994;51.796;13.006;2023-03-16T07:40:34;0.90;99.90
28863;DHT22;15994;51.796;13.006;2023-03-16T07:43:00;1.00;99.90
28863;DHT22;15994;51.796;13.006;2023-03-16T07:45:28;1.10;99.90
28863;DHT22;15994;51.796;13.006;2023-03-16T07:47:56;1.20;99.90
28863;DHT22;15994;51.796;13.006;2023-03-16T07:50:22;1.30;99.90
28863;DHT22;15994;51.796;13.006;2023-03-16T07:52:49;1.30;99.90
28863;DHT22;15994;51.796;13.006;2023-03-16T07:55:15;1.40;99.90
28863;DHT22;15994;51.796;13.006;2023-03-16T07:57:42;1.40;99.90
28863;DHT22;15994;51.796;13.006;2023-03-16T08:00:12;1.40;99.90
28863;DHT22;15994;51.796;13.006;2023-03-16T08:02:39;1.40;99.90
28863;DHT22;15994;51.796;13.006;2023-03-16T08:05:06;1.40;99.90
28863;DHT22;15994;51.796;13.006;2023-03-16T08:07:34;1.50;99.90
28863;DHT22;15994;51.796;13.006;2023-03-16T08:10:01;1.60;99.90
28863;DHT22;15994;51.796;13.006;2023-03-16T08:12:28;1.60;99.90
28863;DHT22;15994;51.796;13.006;2023-03-16T08:14:54;1.70;99.90
28863;DHT22;15994;51.796;13.006;2023-03-16T08:17:21;1.90;99.90
28863;DHT22;15994;51.796;13.006;2023-03-16T08:19:47;2.00;99.90
28863;DHT22;15994;51.796;13.006;2023-03-16T08:22:14;2.00;99.90
28863;DHT22;15994;51.796;13.006;2023-03-16T08:24:41;2.10;99.90
28863;DHT22;15994;51.796;13.006;2023-03-16T08:27:08;2.20;99.90
28863;DHT22;15994;51.796;13.006;2023-03-16T08:29:35;2.20;99.90
28863;DHT22;15994;51.796;13.006;2023-03-16T08:32:02;2.30;99.90
28863;DHT22;15994;51.796;13.006;2023-03-16T08:34:28;2.50;99.90
28863;DHT22;15994;51.796;13.006;2023-03-16T08:36:56;2.70;99.90
28863;DHT22;15994;51.796;13.006;2023-03-16T08:39:22;2.80;99.90
28863;DHT22;15994;51.796;13.006;2023-03-16T08:41:49;2.90;99.90
28863;DHT22;15994;51.796;13.006;2023-03-16T08:44:16;3.00;99.90
28863;DHT22;15994;51.796;13.006;2023-03-16T08:46:44;3.10;99.90
28863;DHT22;15994;51.796;13.006;2023-03-16T08:49:10;3.20;99.90
28863;DHT22;15994;51.796;13.006;2023-03-16T08:51:37;3.20;99.90
28863;DHT22;15994;51.796;13.006;2023-03-16T08:54:04;3.30;99.90
28863;DHT22;15994;51.796;13.006;2023-03-16T08:56:31;3.30;99.90
28863;DHT22;15994;51.796;13.006;2023-03-16T08:58:58;3.50;99.90
28863;DHT22;15994;51.796;13.006;2023-03-16T09:01:25;3.60;99.90
28863;DHT22;15994;51.796;13.006;2023-03-16T09:03:51;3.70;99.90
28863;DHT22;15994;51.796;13.006;2023-03-16T09:06:19;3.80;99.90
28863;DHT22;15994;51.796;13.006;2023-03-16T09:08:46;3.80;99.90
28863;DHT22;15994;51.796;13.006;2023-03-16T09:11:15;3.90;99.90
28863;DHT22;15994;51.796;13.006;2023-03-16T09:13:43;3.90;99.90
28863;DHT22;15994;51.796;13.006;2023-03-16T09:16:11;4.00;99.90
28863;DHT22;15994;51.796;13.006;2023-03-16T09:18:37;4.00;99.90
28863;DHT22;15994;51.796;13.006;2023-03-16T09:21:06;4.10;99.90
28863;DHT22;15994;51.796;13.006;2023-03-16T09:23:35;4.10;99.90
28863;DHT22;15994;51.796;13.006;2023-03-16T09:26:04;4.10;99.90
28863;DHT22;15994;51.796;13.006;2023-03-16T09:28:32;4.30;99.90
28863;DHT22;15994;51.796;13.006;2023-03-16T09:31:00;4.50;99.90
28863;DHT22;15994;51.796;13.006;2023-03-16T09:33:27;4.50;99.90
28863;DHT22;15994;51.796;13.006;2023-03-16T09:35:55;4.60;99.90
28863;DHT22;15994;51.796;13.006;2023-03-16T09:38:23;4.70;99.90
28863;DHT22;15994;51.796;13.006;2023-03-16T09:43:59;4.70;99.90
28863;DHT22;15994;51.796;13.006;2023-03-16T09:46:33;4.80;99.90
28863;DHT22;15994;51.796;13.006;2023-03-16T09:49:00;4.90;99.90
28863;DHT22;15994;51.796;13.006;2023-03-16T09:59:50;5.30;99.90
28863;DHT22;15994;51.796;13.006;2023-03-16T10:05:09;5.30;99.90
28863;DHT22;15994;51.796;13.006;2023-03-16T10:10:32;5.50;99.90
28863;DHT22;15994;51.796;13.006;2023-03-16T10:13:04;5.60;99.90
28863;DHT22;15994;51.796;13.006;2023-03-16T10:15:38;5.70;99.90
28863;DHT22;15994;51.796;13.006;2023-03-16T10:18:27;5.70;99.90
28863;DHT22;15994;51.796;13.006;2023-03-16T10:20:57;5.80;99.90
28863;DHT22;15994;51.796;13.006;2023-03-16T10:23:24;5.80;99.90
28863;DHT22;15994;51.796;13.006;2023-03-16T10:25:53;5.80;99.90
28863;DHT22;15994;51.796;13.006;2023-03-16T10:28:22;5.90;99.90
28863;DHT22;15994;51.796;13.006;2023-03-16T10:30:55;5.90;99.90
28863;DHT22;15994;51.796;13.006;2023-03-16T10:33:27;5.90;99.90
28863;DHT22;15994;51.796;13.006;2023-03-16T10:35:59;5.90;99.90
28863;DHT22;15994;51.796;13.006;2023-03-16T10:40:58;6.10;99.90
28863;DHT22;15994;51.796;13.006;2023-03-16T10:43:25;6.10;99.90
28863;DHT22;15994;51.796;13.006;2023-03-16T10:45:59;6.20;99.90
28863;DHT22;15994;51.796;13.006;2023-03-16T10:48:26;6.40;99.90
28863;DHT22;15994;51.796;13.006;2023-03-16T10:50:55;6.50;99.90
28863;DHT22;15994;51.796;13.006;2023-03-16T10:53:26;6.60;99.90
28863;DHT22;15994;51.796;13.006;2023-03-16T10:55:59;6.70;99.90
28863;DHT22;15994;51.796;13.006;2023-03-16T10:58:30;6.70;99.90
28863;DHT22;15994;51.796;13.006;2023-03-16T11:00:58;6.70;99.90
28863;DHT22;15994;51.796;13.006;2023-03-16T11:03:29;6.70;99.90
28863;DHT22;15994;51.796;13.006;2023-03-16T11:05:59;6.70;99.90
28863;DHT22;15994;51.796;13.006;2023-03-16T11:08:30;6.70;99.90
28863;DHT22;15994;51.796;13.006;2023-03-16T11:10:59;6.80;99.90
28863;DHT22;15994;51.796;13.006;2023-03-16T11:13:35;6.80;99.90
28863;DHT22;15994;51.796;13.006;2023-03-16T11:21:55;7.00;99.90
28863;DHT22;15994;51.796;13.006;2023-03-16T11:27:01;7.20;99.90
28863;DHT22;15994;51.796;13.006;2023-03-16T11:32:11;7.30;99.90
28863;DHT22;15994;51.796;13.006;2023-03-16T11:34:40;7.50;99.90
28863;DHT22;15994;51.796;13.006;2023-03-16T11:40:09;7.70;99.90
28863;DHT22;15994;51.796;13.006;2023-03-16T11:43:04;7.50;99.90
28863;DHT22;15994;51.796;13.006;2023-03-16T11:45:43;7.50;99.90
28863;DHT22;15994;51.796;13.006;2023-03-16T11:51:34;7.70;99.90
28863;DHT22;15994;51.796;13.006;2023-03-16T11:54:25;7.80;99.90
28863;DHT22;15994;51.796;13.006;2023-03-16T11:56:57;7.80;99.90
28863;DHT22;15994;51.796;13.006;2023-03-16T12:14:42;8.20;99.90
28863;DHT22;15994;51.796;13.006;2023-03-16T12:17:18;8.20;99.90
28863;DHT22;15994;51.796;13.006;2023-03-16T12:20:12;8.10;99.90
28863;DHT22;15994;51.796;13.006;2023-03-16T12:23:04;8.20;99.90
28863;DHT22;15994;51.796;13.006;2023-03-16T12:25:35;8.30;99.90
28863;DHT22;15994;51.796;13.006;2023-03-16T12:28:08;8.40;99.90
28863;DHT22;15994;51.796;13.006;2023-03-16T12:31:08;8.40;99.90
28863;DHT22;15994;51.796;13.006;2023-03-16T12:36:37;8.30;99.90
28863;DHT22;15994;51.796;13.006;2023-03-16T12:39:18;8.40;99.90
28863;DHT22;15994;51.796;13.006;2023-03-16T12:42:09;8.40;99.90
28863;DHT22;15994;51.796;13.006;2023-03-16T12:47:47;8.30;99.90
28863;DHT22;15994;51.796;13.006;2023-03-16T12:50:18;8.40;99.90
28863;DHT22;15994;51.796;13.006;2023-03-16T12:52:50;8.40;99.90
28863;DHT22;15994;51.796;13.006;2023-03-16T12:55:26;8.40;99.90
28863;DHT22;15994;51.796;13.006;2023-03-16T12:58:06;8.40;99.90
28863;DHT22;15994;51.796;13.006;2023-03-16T13:00:40;8.40;99.90
28863;DHT22;15994;51.796;13.006;2023-03-16T13:03:14;8.40;99.90
28863;DHT22;15994;51.796;13.006;2023-03-16T13:05:49;8.50;99.90
28863;DHT22;15994;51.796;13.006;2023-03-16T13:08:18;8.40;99.90
28863;DHT22;15994;51.796;13.006;2023-03-16T13:11:06;8.40;99.90
28863;DHT22;15994;51.796;13.006;2023-03-16T13:13:46;8.50;99.90
28863;DHT22;15994;51.796;13.006;2023-03-16T13:16:32;8.60;99.90
28863;DHT22;15994;51.796;13.006;2023-03-16T13:21:44;8.70;98.80
28863;DHT22;15994;51.796;13.006;2023-03-16T13:24:20;8.70;98.90
28863;DHT22;15994;51.796;13.006;2023-03-16T13:27:04;8.60;99.20
28863;DHT22;15994;51.796;13.006;2023-03-16T13:29:32;8.70;99.90
28863;DHT22;15994;51.796;13.006;2023-03-16T13:32:02;8.80;99.90
28863;DHT22;15994;51.796;13.006;2023-03-16T13:34:38;8.80;99.50
28863;DHT22;15994;51.796;13.006;2023-03-16T13:37:12;8.80;97.50
28863;DHT22;15994;51.796;13.006;2023-03-16T13:39:39;8.90;98.40
28863;DHT22;15994;51.796;13.006;2023-03-16T13:42:17;8.90;96.00
28863;DHT22;15994;51.796;13.006;2023-03-16T13:44:45;8.90;96.20
28863;DHT22;15994;51.796;13.006;2023-03-16T13:47:16;9.00;96.40
28863;DHT22;15994;51.796;13.006;2023-03-16T13:49:53;8.90;95.90
28863;DHT22;15994;51.796;13.006;2023-03-16T13:52:27;9.00;95.20
28863;DHT22;15994;51.796;13.006;2023-03-16T13:55:02;9.00;95.50
28863;DHT22;15994;51.796;13.006;2023-03-16T13:57:37;8.90;95.80
28863;DHT22;15994;51.796;13.006;2023-03-16T14:00:17;8.90;95.40
28863;DHT22;15994;51.796;13.006;2023-03-16T14:02:49;8.90;95.60
28863;DHT22;15994;51.796;13.006;2023-03-16T14:05:23;8.90;95.00
28863;DHT22;15994;51.796;13.006;2023-03-16T14:07:52;9.00;94.30
28863;DHT22;15994;51.796;13.006;2023-03-16T14:10:21;9.00;94.20
28863;DHT22;15994;51.796;13.006;2023-03-16T14:16:00;9.00;92.80
28863;DHT22;15994;51.796;13.006;2023-03-16T14:18:35;9.00;93.00
28863;DHT22;15994;51.796;13.006;2023-03-16T14:21:11;9.00;93.70
28863;DHT22;15994;51.796;13.006;2023-03-16T14:24:05;9.00;94.30
28863;DHT22;15994;51.796;13.006;2023-03-16T14:26:40;9.00;95.20
28863;DHT22;15994;51.796;13.006;2023-03-16T14:29:24;9.10;94.90
28863;DHT22;15994;51.796;13.006;2023-03-16T14:31:51;9.00;94.40
28863;DHT22;15994;51.796;13.006;2023-03-16T14:34:28;9.00;95.10
28863;DHT22;15994;51.796;13.006;2023-03-16T14:37:12;9.00;95.30
28863;DHT22;15994;51.796;13.006;2023-03-16T14:39:40;9.00;95.20
28863;DHT22;15994;51.796;13.006;2023-03-16T14:42:19;9.00;95.60
28863;DHT22;15994;51.796;13.006;2023-03-16T14:44:46;9.00;94.50
28863;DHT22;15994;51.796;13.006;2023-03-16T14:47:25;9.10;93.60
28863;DHT22;15994;51.796;13.006;2023-03-16T14:49:54;9.00;94.40
28863;DHT22;15994;51.796;13.006;2023-03-16T14:52:28;9.00;94.70
28863;DHT22;15994;51.796;13.006;2023-03-16T14:54:56;9.00;94.10
28863;DHT22;15994;51.796;13.006;2023-03-16T14:57:24;9.00;93.70
28863;DHT22;15994;51.796;13.006;2023-03-16T14:59:52;9.10;93.40
28863;DHT22;15994;51.796;13.006;2023-03-16T15:02:24;9.10;93.20
28863;DHT22;15994;51.796;13.006;2023-03-16T15:04:52;9.00;94.10
28863;DHT22;15994;51.796;13.006;2023-03-16T15:07:26;9.00;93.20
28863;DHT22;15994;51.796;13.006;2023-03-16T15:10:28;9.00;94.00
28863;DHT22;15994;51.796;13.006;2023-03-16T15:12:47;9.00;94.20
28863;DHT22;15994;51.796;13.006;2023-03-16T15:15:20;8.90;94.20
28863;DHT22;15994;51.796;13.006;2023-03-16T15:17:50;8.90;94.00
28863;DHT22;15994;51.796;13.006;2023-03-16T15:20:19;8.80;94.60
28863;DHT22;15994;51.796;13.006;2023-03-16T15:22:48;8.80;94.80
28863;DHT22;15994;51.796;13.006;2023-03-16T15:25:30;8.80;95.40
28863;DHT22;15994;51.796;13.006;2023-03-16T15:28:11;8.80;95.00
28863;DHT22;15994;51.796;13.006;2023-03-16T15:30:38;8.80;95.40
28863;DHT22;15994;51.796;13.006;2023-03-16T15:33:07;8.80;94.70
28863;DHT22;15994;51.796;13.006;2023-03-16T15:35:33;8.70;94.80
28863;DHT22;15994;51.796;13.006;2023-03-16T15:38:02;8.70;95.20
28863;DHT22;15994;51.796;13.006;2023-03-16T15:40:30;8.60;96.00
28863;DHT22;15994;51.796;13.006;2023-03-16T15:42:57;8.50;95.40
28863;DHT22;15994;51.796;13.006;2023-03-16T15:45:23;8.50;96.10
28863;DHT22;15994;51.796;13.006;2023-03-16T15:47:52;8.50;96.10
28863;DHT22;15994;51.796;13.006;2023-03-16T15:50:20;8.50;96.30
28863;DHT22;15994;51.796;13.006;2023-03-16T15:53:01;8.50;96.90
28863;DHT22;15994;51.796;13.006;2023-03-16T15:55:42;8.40;97.10
28863;DHT22;15994;51.796;13.006;2023-03-16T15:58:24;8.40;97.00
28863;DHT22;15994;51.796;13.006;2023-03-16T16:00:53;8.30;96.50
28863;DHT22;15994;51.796;13.006;2023-03-16T16:03:21;8.30;96.90
28863;DHT22;15994;51.796;13.006;2023-03-16T16:05:48;8.20;97.20
28863;DHT22;15994;51.796;13.006;2023-03-16T16:08:15;8.10;97.40
28863;DHT22;15994;51.796;13.006;2023-03-16T16:10:43;8.00;97.20
28863;DHT22;15994;51.796;13.006;2023-03-16T16:13:18;7.90;97.80
28863;DHT22;15994;51.796;13.006;2023-03-16T16:15:45;7.80;98.30
28863;DHT22;15994;51.796;13.006;2023-03-16T16:18:33;7.70;98.90
28863;DHT22;15994;51.796;13.006;2023-03-16T16:21:04;7.60;99.30
28863;DHT22;15994;51.796;13.006;2023-03-16T16:23:31;7.50;99.80
28863;DHT22;15994;51.796;13.006;2023-03-16T16:26:01;7.40;99.90
28863;DHT22;15994;51.796;13.006;2023-03-16T16:28:30;7.30;99.90
28863;DHT22;15994;51.796;13.006;2023-03-16T16:30:58;7.30;99.90
28863;DHT22;15994;51.796;13.006;2023-03-16T16:33:27;7.20;99.90
28863;DHT22;15994;51.796;13.006;2023-03-16T16:35:56;7.20;99.90
28863;DHT22;15994;51.796;13.006;2023-03-16T16:38:23;7.10;99.90
28863;DHT22;15994;51.796;13.006;2023-03-16T16:40:51;7.10;99.90
28863;DHT22;15994;51.796;13.006;2023-03-16T16:43:32;7.10;99.90
28863;DHT22;15994;51.796;13.006;2023-03-16T16:46:00;7.10;99.90
28863;DHT22;15994;51.796;13.006;2023-03-16T16:48:35;7.10;99.90
28863;DHT22;15994;51.796;13.006;2023-03-16T16:51:04;7.00;99.90
28863;DHT22;15994;51.796;13.006;2023-03-16T16:53:32;6.90;99.90